Time;durP1;ratioP1;P1;durP2;ratioP2;P2;SDS_P1;SDS_P2;PMS_P1;PMS_P2;Temp;Humidity;BMP_temperature;BMP_pressure;BME280_temperature;BME280_humidity;BME280_pressure;Samples;Min_cycle;Max_cycle;Signal;HPM_P1;HPM_P2
2023/01/21 00:00:42;;;;;;;59.25;20.58;;;-1.60;99.90;;;;;;5099487;28;20027;-66
2023/01/21 00:03:08;;;;;;;57.20;21.70;;;-1.70;99.90;;;;;;5101190;28;20043;-66
2023/01/21 00:05:34;;;;;;;57.45;19.48;;;-1.70;99.90;;;;;;5097743;28;20062;-66
2023/01/21 00:07:59;;;;;;;54.40;18.60;;;-1.70;99.90;;;;;;5102341;28;20035;-66
2023/01/21 00:10:25;;;;;;;60.03;20.60;;;-1.70;99.90;;;;;;5117794;27;20078;-66
2023/01/21 00:12:51;;;;;;;59.17;20.15;;;-1.70;99.90;;;;;;5120785;27;20031;-66
2023/01/21 00:15:16;;;;;;;53.35;19.58;;;-1.70;99.90;;;;;;5098865;28;20082;-66
2023/01/21 00:17:42;;;;;;;53.45;18.98;;;-1.70;99.90;;;;;;5102952;28;20074;-66
2023/01/21 00:20:10;;;;;;;61.80;20.92;;;-1.70;99.90;;;;;;5100046;28;20385;-66
2023/01/21 00:22:36;;;;;;;57.05;19.67;;;-1.70;99.90;;;;;;5100236;28;20053;-66
2023/01/21 00:25:01;;;;;;;55.60;20.15;;;-1.80;99.90;;;;;;5099601;28;20481;-66
2023/01/21 00:27:28;;;;;;;52.05;18.20;;;-1.80;99.90;;;;;;5103545;28;20489;-66
2023/01/21 00:29:53;;;;;;;54.03;18.90;;;-1.80;99.90;;;;;;5098684;28;20047;-66
2023/01/21 00:32:19;;;;;;;57.00;19.75;;;-1.80;99.90;;;;;;5099307;28;20145;-66
2023/01/21 00:34:45;;;;;;;55.20;18.70;;;-1.80;99.90;;;;;;5100948;28;20037;-66
2023/01/21 00:37:10;;;;;;;58.83;19.90;;;-1.80;99.90;;;;;;5099488;27;20473;-65
2023/01/21 00:39:41;;;;;;;60.95;20.98;;;-1.80;99.90;;;;;;5103646;27;20030;-66
2023/01/21 00:42:12;;;;;;;61.58;19.85;;;-1.90;99.90;;;;;;5088693;27;20043;-66
2023/01/21 00:44:38;;;;;;;55.80;18.83;;;-1.80;99.90;;;;;;5120437;27;20401;-66
2023/01/21 00:47:04;;;;;;;59.28;21.35;;;-1.80;99.90;;;;;;5122502;27;20042;-66
2023/01/21 00:49:30;;;;;;;55.15;20.52;;;-1.80;99.90;;;;;;5104217;27;20043;-66
2023/01/21 00:51:56;;;;;;;57.33;20.10;;;-1.80;99.90;;;;;;5103045;27;20039;-66
2023/01/21 00:54:22;;;;;;;55.42;20.23;;;-1.70;99.90;;;;;;5123246;27;20035;-66
2023/01/21 00:56:48;;;;;;;58.85;19.95;;;-1.70;99.90;;;;;;5105926;27;20383;-66
2023/01/21 00:59:13;;;;;;;54.05;19.95;;;-1.60;99.90;;;;;;5101408;27;20027;-66
2023/01/21 01:01:39;;;;;;;41.97;13.75;;;-1.50;99.90;;;;;;5104483;27;20073;-65
2023/01/21 01:04:05;;;;;;;57.40;19.65;;;-1.50;99.90;;;;;;5105247;27;20042;-65
2023/01/21 01:06:31;;;;;;;60.10;19.13;;;-1.40;99.90;;;;;;5107076;27;20359;-64
2023/01/21 01:08:57;;;;;;;53.28;16.65;;;-1.30;99.90;;;;;;5104963;27;20035;-65
2023/01/21 01:11:25;;;;;;;58.55;19.42;;;-1.10;99.90;;;;;;5115817;27;20497;-64
2023/01/21 01:13:52;;;;;;;66.13;21.77;;;-1.00;99.90;;;;;;5104488;27;20126;-65
2023/01/21 01:16:18;;;;;;;57.00;16.85;;;-1.00;99.90;;;;;;5106110;27;20039;-64
2023/01/21 01:18:44;;;;;;;52.35;17.83;;;-0.80;99.90;;;;;;5107597;27;20079;-64
2023/01/21 01:21:12;;;;;;;56.25;18.95;;;-0.80;99.90;;;;;;5105974;27;20743;-65
2023/01/21 01:23:38;;;;;;;56.92;19.70;;;-0.80;99.90;;;;;;5107221;27;20039;-65
2023/01/21 01:26:05;;;;;;;65.07;22.20;;;-0.70;99.90;;;;;;5103512;27;20066;-65
2023/01/21 01:28:32;;;;;;;62.88;20.05;;;-0.70;99.90;;;;;;5104377;27;20087;-65
2023/01/21 01:30:58;;;;;;;49.60;16.25;;;-0.70;99.90;;;;;;5101780;27;20050;-65
2023/01/21 01:33:25;;;;;;;60.35;19.40;;;-0.60;99.90;;;;;;5103297;27;20115;-65
2023/01/21 01:35:50;;;;;;;52.30;16.98;;;-0.70;99.90;;;;;;5102031;27;20067;-65
2023/01/21 01:38:21;;;;;;;60.50;20.42;;;-0.70;99.90;;;;;;5105686;27;20055;-65
2023/01/21 01:40:49;;;;;;;63.55;22.30;;;-0.70;99.90;;;;;;5104925;27;20170;-66
2023/01/21 01:43:21;;;;;;;72.13;22.92;;;-0.60;99.90;;;;;;5104676;27;20070;-66
2023/01/21 01:45:47;;;;;;;67.97;22.85;;;-0.70;99.90;;;;;;5104673;27;20027;-66
2023/01/21 01:48:18;;;;;;;69.15;22.92;;;-0.70;99.90;;;;;;5103956;28;20035;-65
2023/01/21 01:50:45;;;;;;;59.83;17.60;;;-0.80;99.90;;;;;;5117660;27;20492;-65
2023/01/21 01:53:14;;;;;;;71.32;22.17;;;-0.70;99.90;;;;;;5104614;27;20031;-66
2023/01/21 01:55:40;;;;;;;68.63;23.55;;;-0.60;99.90;;;;;;5100888;27;20043;-66
2023/01/21 01:58:11;;;;;;;69.18;23.38;;;-0.70;99.90;;;;;;5103411;27;20039;-66
2023/01/21 02:00:37;;;;;;;62.53;19.90;;;-0.60;99.90;;;;;;5098558;27;20035;-65
2023/01/21 02:05:48;;;;;;;68.85;23.13;;;-0.70;99.90;;;;;;5098613;27;20195;-65
2023/01/21 02:08:14;;;;;;;73.32;24.05;;;-0.70;99.90;;;;;;5104882;27;20524;-66
2023/01/21 02:10:40;;;;;;;72.88;23.30;;;-0.70;99.90;;;;;;5118944;27;20042;-66
2023/01/21 02:13:05;;;;;;;70.68;23.25;;;-0.70;99.90;;;;;;5106119;27;20043;-66
2023/01/21 02:15:40;;;;;;;68.20;22.65;;;-0.70;99.90;;;;;;5101112;27;20039;-66
2023/01/21 02:18:40;;;;;;;71.32;22.52;;;-0.60;99.90;;;;;;5120473;27;20366;-66
2023/01/21 02:21:11;;;;;;;72.47;23.02;;;-0.60;99.90;;;;;;5096292;27;20596;-66
2023/01/21 02:23:49;;;;;;;79.75;24.05;;;-0.60;99.90;;;;;;5106267;27;20031;-65
2023/01/21 02:26:39;;;;;;;76.03;23.33;;;-0.60;99.90;;;;;;5097825;27;20073;-66
2023/01/21 02:29:30;;;;;;;79.25;24.23;;;-0.60;99.90;;;;;;5103353;27;20043;-66
2023/01/21 02:32:13;;;;;;;74.13;23.55;;;-0.60;99.90;;;;;;5103708;27;20058;-66
2023/01/21 02:34:44;;;;;;;;;;;-0.60;99.90;;;;;;5104554;27;21435;-66
2023/01/21 02:37:42;;;;;;;71.05;22.58;;;-0.60;99.90;;;;;;5099604;27;19920;-66
2023/01/21 02:40:27;;;;;;;71.57;22.58;;;-0.50;99.90;;;;;;5100874;27;20039;-65
2023/01/21 02:43:25;;;;;;;68.07;20.83;;;-0.60;99.90;;;;;;5119053;27;20561;-66
2023/01/21 02:45:57;;;;;;;77.60;23.33;;;-0.50;99.90;;;;;;5098566;27;20043;-66
2023/01/21 02:48:30;;;;;;;84.30;25.17;;;-0.50;99.90;;;;;;5105417;27;20039;-66
2023/01/21 02:50:56;;;;;;;77.65;23.30;;;-0.50;99.90;;;;;;5100133;27;20043;-66
2023/01/21 02:53:27;;;;;;;87.07;24.83;;;-0.40;99.90;;;;;;5101347;27;20108;-66
2023/01/21 02:55:53;;;;;;;82.05;24.80;;;-0.40;99.90;;;;;;5100713;27;20134;-65
2023/01/21 02:58:26;;;;;;;80.55;25.90;;;-0.40;99.90;;;;;;5102809;27;20052;-66
2023/01/21 03:01:13;;;;;;;88.35;25.70;;;-0.50;99.90;;;;;;5099399;27;20035;-66
2023/01/21 03:03:38;;;;;;;93.00;25.60;;;-0.40;99.90;;;;;;5086810;27;20043;-66
2023/01/21 03:06:47;;;;;;;92.97;25.02;;;-0.30;99.90;;;;;;5100932;27;20055;-66
2023/01/21 03:09:28;;;;;;;77.28;23.90;;;-0.40;99.90;;;;;;5068733;27;20039;-65
2023/01/21 03:12:12;;;;;;;86.35;23.83;;;-0.40;99.90;;;;;;5100339;27;20182;-66
2023/01/21 03:17:58;;;;;;;91.15;24.05;;;-0.40;99.90;;;;;;5099499;27;20045;-66
2023/01/21 03:20:35;;;;;;;87.10;22.85;;;-0.40;99.90;;;;;;5099754;27;20035;-65
2023/01/21 03:23:05;;;;;;;76.30;21.15;;;-0.30;99.90;;;;;;5098151;27;20038;-66
2023/01/21 03:25:32;;;;;;;79.55;22.60;;;-0.30;99.90;;;;;;5101478;27;20039;-66
2023/01/21 03:28:01;;;;;;;82.53;21.92;;;-0.30;99.90;;;;;;5104120;27;20047;-65
2023/01/21 03:30:28;;;;;;;83.20;22.17;;;-0.30;99.90;;;;;;5102200;27;20095;-66
2023/01/21 03:32:55;;;;;;;85.80;23.15;;;-0.30;99.90;;;;;;5100600;27;20047;-66
2023/01/21 03:35:28;;;;;;;91.32;23.75;;;-0.30;99.90;;;;;;5104746;27;20478;-65
2023/01/21 03:38:08;;;;;;;95.70;24.77;;;-0.20;99.90;;;;;;5100971;27;20051;-65
2023/01/21 03:40:52;;;;;;;76.00;22.15;;;-0.20;99.90;;;;;;5104072;27;20433;-65
2023/01/21 03:43:18;;;;;;;87.30;23.27;;;-0.20;99.90;;;;;;5100538;28;20043;-66
2023/01/21 03:46:10;;;;;;;84.13;22.67;;;-0.20;99.90;;;;;;5103427;27;20035;-66
2023/01/21 03:49:05;;;;;;;84.45;23.05;;;-0.10;99.90;;;;;;5107010;27;20034;-66
2023/01/21 03:51:36;;;;;;;81.15;21.92;;;-0.20;99.90;;;;;;5102507;27;20085;-66
2023/01/21 03:54:02;;;;;;;83.32;24.20;;;-0.20;99.90;;;;;;5099490;27;20046;-67
2023/01/21 03:56:28;;;;;;;88.75;24.33;;;-0.20;99.90;;;;;;5100213;28;20035;-66
2023/01/21 03:58:54;;;;;;;82.32;22.27;;;-0.10;99.90;;;;;;5102433;28;20103;-66
2023/01/21 04:01:20;;;;;;;77.70;22.17;;;-0.20;99.90;;;;;;5099356;28;20073;-66
2023/01/21 04:03:46;;;;;;;79.07;22.92;;;-0.20;99.90;;;;;;5119965;27;20039;-66
2023/01/21 04:06:18;;;;;;;93.82;23.92;;;-0.20;99.90;;;;;;5126142;28;20041;-66
2023/01/21 04:08:44;;;;;;;90.53;22.80;;;-0.20;99.90;;;;;;5120330;27;20074;-66
2023/01/21 04:11:09;;;;;;;93.40;24.65;;;-0.10;99.90;;;;;;5102463;28;20114;-66
2023/01/21 04:13:35;;;;;;;85.82;24.67;;;-0.20;99.90;;;;;;5106642;27;20134;-66
2023/01/21 04:16:01;;;;;;;89.35;24.05;;;-0.10;99.90;;;;;;5111327;27;20113;-66
2023/01/21 04:18:27;;;;;;;85.50;23.65;;;-0.20;99.90;;;;;;5106328;27;20031;-66
2023/01/21 04:20:52;;;;;;;85.82;23.80;;;-0.20;99.90;;;;;;5109950;27;20185;-66
2023/01/21 04:23:18;;;;;;;85.05;24.67;;;-0.20;99.90;;;;;;5107211;27;20054;-66
2023/01/21 04:25:47;;;;;;;82.97;23.92;;;-0.10;99.90;;;;;;5106432;27;20039;-65
2023/01/21 04:28:13;;;;;;;81.03;22.88;;;-0.10;99.90;;;;;;5108571;27;20389;-65
2023/01/21 04:30:38;;;;;;;79.40;23.83;;;-0.20;99.90;;;;;;5105802;27;20050;-66
2023/01/21 04:33:04;;;;;;;89.18;24.00;;;-0.20;99.90;;;;;;5108651;27;20039;-66
2023/01/21 04:35:29;;;;;;;72.07;22.98;;;-0.20;99.90;;;;;;5110511;27;20542;-65
2023/01/21 04:37:55;;;;;;;82.20;23.55;;;-0.30;99.90;;;;;;5104287;27;20068;-65
2023/01/21 04:40:20;;;;;;;83.70;24.05;;;-0.30;99.90;;;;;;5110476;27;20370;-65
2023/01/21 04:42:46;;;;;;;80.85;23.08;;;-0.30;99.90;;;;;;5106193;27;20096;-66
2023/01/21 04:45:12;;;;;;;78.03;22.13;;;-0.20;99.90;;;;;;5108427;27;20035;-66
2023/01/21 04:47:43;;;;;;;83.00;23.13;;;-0.10;99.90;;;;;;5105974;27;20130;-66
2023/01/21 04:50:10;;;;;;;80.50;22.35;;;-0.20;99.90;;;;;;5108052;27;20469;-66
2023/01/21 04:52:36;;;;;;;77.22;21.85;;;-0.20;99.90;;;;;;5106625;27;20042;-66
2023/01/21 04:55:02;;;;;;;72.95;21.27;;;0.00;99.90;;;;;;5109792;27;20054;-66
2023/01/21 04:57:27;;;;;;;68.75;20.45;;;-0.10;99.90;;;;;;5107766;27;20501;-65
2023/01/21 04:59:53;;;;;;;66.28;20.80;;;-0.10;99.90;;;;;;5109803;27;20027;-66
2023/01/21 05:02:19;;;;;;;72.88;22.33;;;-0.10;99.90;;;;;;5107291;27;20282;-66
2023/01/21 05:04:44;;;;;;;79.03;22.90;;;-0.10;99.90;;;;;;5110006;27;20035;-66
2023/01/21 05:07:10;;;;;;;72.32;22.25;;;-0.20;99.90;;;;;;5103480;27;20039;-65
2023/01/21 05:09:36;;;;;;;73.82;21.95;;;-0.20;99.90;;;;;;5108125;27;20062;-65
2023/01/21 05:12:02;;;;;;;79.72;24.38;;;-0.10;99.90;;;;;;5104815;27;20035;-66
2023/01/21 05:14:28;;;;;;;75.50;21.52;;;-0.20;99.90;;;;;;5106314;27;20061;-66
2023/01/21 05:16:53;;;;;;;81.70;23.45;;;-0.20;99.90;;;;;;5105738;27;20043;-66
2023/01/21 05:19:19;;;;;;;77.00;22.05;;;-0.20;99.90;;;;;;5128290;27;20043;-66
2023/01/21 05:21:44;;;;;;;74.10;22.20;;;-0.40;99.90;;;;;;5125432;27;20456;-66
2023/01/21 05:24:10;;;;;;;77.97;22.67;;;-0.40;99.90;;;;;;5108737;27;20423;-66
2023/01/21 05:26:36;;;;;;;76.20;22.83;;;-0.50;99.90;;;;;;5121720;27;20532;-66
2023/01/21 05:29:01;;;;;;;75.47;22.33;;;-0.50;99.90;;;;;;5108344;27;20039;-65
2023/01/21 05:31:27;;;;;;;74.50;23.02;;;-0.60;99.90;;;;;;5105643;27;20129;-66
2023/01/21 05:33:53;;;;;;;87.13;23.73;;;-0.60;99.90;;;;;;5108627;27;20046;-66
2023/01/21 05:36:18;;;;;;;80.25;23.67;;;-0.70;99.90;;;;;;5107500;27;20406;-66
2023/01/21 05:38:44;;;;;;;81.45;23.48;;;-0.70;99.90;;;;;;5105656;27;20049;-66
2023/01/21 05:41:09;;;;;;;87.38;24.08;;;-0.60;99.90;;;;;;5107619;27;20034;-65
2023/01/21 05:43:35;;;;;;;81.60;24.80;;;-0.60;99.90;;;;;;5103462;27;20091;-66
2023/01/21 05:46:00;;;;;;;77.80;24.50;;;-0.60;99.90;;;;;;5105113;27;20034;-65
2023/01/21 05:48:28;;;;;;;89.60;25.52;;;-0.60;99.90;;;;;;5086358;27;21090;-66
2023/01/21 05:50:53;;;;;;;90.13;25.05;;;-0.60;99.90;;;;;;5107683;27;20505;-66
2023/01/21 05:53:19;;;;;;;100.22;26.63;;;-0.60;99.90;;;;;;5122771;27;20039;-66
2023/01/21 05:55:45;;;;;;;95.85;25.02;;;-0.50;99.90;;;;;;5124885;27;20038;-66
2023/01/21 05:58:10;;;;;;;87.90;24.48;;;-0.50;99.90;;;;;;5106419;27;20043;-65
2023/01/21 06:00:36;;;;;;;91.50;25.42;;;-0.40;99.90;;;;;;5108389;27;20073;-66
2023/01/21 06:03:02;;;;;;;86.10;24.35;;;-0.50;99.90;;;;;;5124461;27;20039;-65
2023/01/21 06:05:28;;;;;;;79.93;23.83;;;-0.40;99.90;;;;;;5108263;27;20039;-65
2023/01/21 06:07:55;;;;;;;82.55;23.05;;;-0.30;99.90;;;;;;5106490;27;20043;-66
2023/01/21 06:10:21;;;;;;;89.53;23.63;;;-0.30;99.90;;;;;;5104915;27;20042;-65
2023/01/21 06:12:50;;;;;;;75.32;22.40;;;-0.30;99.90;;;;;;5106049;27;20493;-65
2023/01/21 06:15:16;;;;;;;83.90;21.00;;;-0.30;99.90;;;;;;5108316;27;20519;-65
2023/01/21 06:17:42;;;;;;;72.07;20.88;;;-0.20;99.90;;;;;;5107050;27;20040;-66
2023/01/21 06:20:08;;;;;;;70.82;18.88;;;-0.20;99.90;;;;;;5102636;27;20041;-66
2023/01/21 06:22:34;;;;;;;73.60;20.48;;;-0.20;99.90;;;;;;5107621;27;20088;-65
2023/01/21 06:24:59;;;;;;;67.65;20.30;;;-0.30;99.90;;;;;;5107493;27;20035;-65
2023/01/21 06:27:25;;;;;;;73.40;19.52;;;-0.20;99.90;;;;;;5107063;27;20042;-66
2023/01/21 06:29:51;;;;;;;73.20;20.33;;;-0.10;99.90;;;;;;5105579;27;20081;-65
2023/01/21 06:32:16;;;;;;;66.63;19.98;;;-0.20;99.90;;;;;;5105998;27;20409;-66
2023/01/21 06:34:42;;;;;;;65.50;19.48;;;-0.20;99.90;;;;;;5100294;27;20047;-65
2023/01/21 06:37:07;;;;;;;70.70;19.17;;;-0.20;99.90;;;;;;5104942;27;20047;-65
2023/01/21 06:39:33;;;;;;;67.50;18.95;;;-0.20;99.90;;;;;;5105301;27;20067;-66
2023/01/21 06:41:59;;;;;;;73.53;19.60;;;-0.10;99.90;;;;;;5124922;27;20035;-65
2023/01/21 06:44:24;;;;;;;63.15;19.23;;;-0.20;99.90;;;;;;5104980;27;20083;-65
2023/01/21 06:46:50;;;;;;;73.43;19.73;;;-0.10;99.90;;;;;;5109439;27;20039;-65
2023/01/21 06:49:16;;;;;;;63.55;18.63;;;-0.20;99.90;;;;;;5103066;27;20043;-65
2023/01/21 06:51:42;;;;;;;63.55;19.10;;;-0.10;99.90;;;;;;5107278;27;20039;-65
2023/01/21 06:54:09;;;;;;;65.55;18.88;;;-0.10;99.90;;;;;;5100709;27;20076;-65
2023/01/21 06:56:35;;;;;;;74.10;19.30;;;-0.20;99.90;;;;;;5104157;27;20031;-65
2023/01/21 06:59:02;;;;;;;65.90;18.98;;;-0.10;99.90;;;;;;5104445;27;20067;-65
2023/01/21 07:01:28;;;;;;;69.38;19.45;;;-0.10;99.90;;;;;;5105248;27;20036;-65
2023/01/21 07:03:54;;;;;;;66.40;18.30;;;-0.10;99.90;;;;;;5107713;27;20035;-66
2023/01/21 07:06:21;;;;;;;89.80;21.58;;;0.00;99.90;;;;;;5108476;27;20039;-65
2023/01/21 07:08:47;;;;;;;67.82;19.95;;;-0.10;99.90;;;;;;5113918;27;20043;-65
2023/01/21 07:11:13;;;;;;;68.88;18.63;;;-0.20;99.90;;;;;;5104433;27;20046;-65
2023/01/21 07:13:38;;;;;;;66.43;19.83;;;-0.10;99.90;;;;;;5113811;27;20047;-65
2023/01/21 07:16:04;;;;;;;74.07;20.30;;;-0.10;99.90;;;;;;5109543;27;20099;-65
2023/01/21 07:18:30;;;;;;;71.78;19.40;;;0.00;99.90;;;;;;5107184;27;20469;-64
2023/01/21 07:20:56;;;;;;;71.38;19.58;;;0.00;99.90;;;;;;5117413;27;20095;-63
2023/01/21 07:23:22;;;;;;;62.88;18.13;;;0.00;99.90;;;;;;5104028;27;20031;-63
2023/01/21 07:25:47;;;;;;;64.68;20.15;;;0.00;99.90;;;;;;5104038;27;20096;-64
2023/01/21 07:28:13;;;;;;;59.55;18.10;;;0.00;99.90;;;;;;5106968;27;20119;-64
2023/01/21 07:30:38;;;;;;;66.78;19.30;;;-0.10;99.90;;;;;;5098864;27;20051;-64
2023/01/21 07:33:05;;;;;;;69.35;20.77;;;0.00;99.90;;;;;;5107283;27;20126;-64
2023/01/21 07:35:32;;;;;;;74.57;19.83;;;0.00;99.90;;;;;;5103356;27;20092;-64
2023/01/21 07:37:58;;;;;;;82.53;21.95;;;-0.10;99.90;;;;;;5106561;27;20133;-64
2023/01/21 07:40:23;;;;;;;75.75;21.20;;;-0.10;99.90;;;;;;5116104;27;20142;-64
2023/01/21 07:42:54;;;;;;;80.53;23.73;;;-0.10;99.90;;;;;;5124392;27;20031;-64
2023/01/21 07:45:20;;;;;;;86.57;22.52;;;-0.20;99.90;;;;;;5104475;27;20077;-64
2023/01/21 07:47:46;;;;;;;89.30;22.85;;;-0.10;99.90;;;;;;5104922;27;20091;-64
2023/01/21 07:50:12;;;;;;;84.95;22.58;;;-0.10;99.90;;;;;;5101059;27;20085;-63
2023/01/21 07:52:37;;;;;;;79.43;21.40;;;-0.10;99.90;;;;;;5101372;28;20047;-63
2023/01/21 07:55:03;;;;;;;109.18;24.17;;;0.00;99.90;;;;;;5101717;27;20031;-64
2023/01/21 07:57:29;;;;;;;75.40;20.90;;;-0.10;99.90;;;;;;5107204;28;20050;-64
2023/01/21 07:59:55;;;;;;;83.97;23.27;;;-0.20;99.90;;;;;;5103682;28;20031;-64
2023/01/21 08:02:20;;;;;;;77.15;21.73;;;-0.10;99.90;;;;;;5104286;28;20038;-64
2023/01/21 08:04:46;;;;;;;86.72;22.35;;;-0.10;99.90;;;;;;5099955;27;20557;-64
2023/01/21 08:07:12;;;;;;;95.07;23.58;;;-0.10;99.90;;;;;;5098003;28;20043;-64
2023/01/21 08:09:38;;;;;;;89.25;23.75;;;-0.10;99.90;;;;;;5106534;27;20366;-64
2023/01/21 08:12:05;;;;;;;104.30;24.90;;;0.00;99.90;;;;;;5111647;28;20047;-64
2023/01/21 08:14:31;;;;;;;98.35;23.38;;;-0.10;99.90;;;;;;5113279;27;20039;-66
2023/01/21 08:16:58;;;;;;;109.93;24.67;;;0.00;99.90;;;;;;5107265;28;20043;-66
2023/01/21 08:19:23;;;;;;;118.20;25.10;;;0.10;99.90;;;;;;5100194;28;20043;-65
2023/01/21 08:21:50;;;;;;;93.88;23.85;;;0.10;99.90;;;;;;5096159;28;20044;-65
2023/01/21 08:24:15;;;;;;;131.93;29.10;;;0.00;99.90;;;;;;5100220;28;20489;-65
2023/01/21 08:26:41;;;;;;;99.78;26.20;;;-0.10;99.90;;;;;;5103728;28;20119;-66
2023/01/21 08:29:07;;;;;;;102.20;25.65;;;0.00;99.90;;;;;;5104761;27;20387;-66
2023/01/21 08:31:32;;;;;;;122.15;26.58;;;0.10;99.90;;;;;;5121185;28;20084;-65
2023/01/21 08:33:58;;;;;;;110.82;26.63;;;0.10;99.90;;;;;;5103903;27;20118;-66
2023/01/21 08:36:24;;;;;;;131.15;26.77;;;0.10;99.90;;;;;;5107426;28;20176;-65
2023/01/21 08:38:54;;;;;;;95.97;23.33;;;0.10;99.90;;;;;;5112010;28;20378;-65
2023/01/21 08:41:20;;;;;;;127.18;28.25;;;0.10;99.90;;;;;;5107171;28;20023;-66
2023/01/21 08:43:45;;;;;;;86.40;22.70;;;0.10;99.90;;;;;;5128235;28;20038;-65
2023/01/21 08:46:12;;;;;;;98.30;23.10;;;0.20;99.90;;;;;;5103232;28;20514;-66
2023/01/21 08:48:38;;;;;;;101.75;23.90;;;0.10;99.90;;;;;;5112336;28;20035;-65
2023/01/21 08:51:04;;;;;;;122.72;26.42;;;0.20;99.90;;;;;;5098007;28;20092;-66
2023/01/21 08:53:29;;;;;;;96.15;23.45;;;0.10;99.90;;;;;;5126281;28;20031;-65
2023/01/21 08:56:00;;;;;;;119.35;25.02;;;0.20;99.90;;;;;;5090933;28;20061;-65
2023/01/21 08:58:26;;;;;;;99.13;23.88;;;0.20;99.90;;;;;;5107416;27;20080;-65
2023/01/21 09:00:52;;;;;;;73.75;19.67;;;0.30;99.90;;;;;;5117762;27;20377;-65
2023/01/21 09:03:18;;;;;;;90.22;25.40;;;0.20;99.90;;;;;;5114341;27;20031;-64
2023/01/21 09:05:44;;;;;;;95.18;23.02;;;0.50;99.90;;;;;;5106456;27;20043;-65
2023/01/21 09:08:10;;;;;;;78.00;21.23;;;0.40;99.90;;;;;;5134483;27;20054;-65
2023/01/21 09:13:20;;;;;;;67.45;19.48;;;0.30;99.90;;;;;;5107710;27;20046;-65
2023/01/21 09:15:46;;;;;;;80.70;21.38;;;0.50;99.90;;;;;;5104026;27;20036;-65
2023/01/21 09:18:11;;;;;;;96.90;24.48;;;0.40;99.90;;;;;;5114213;27;20439;-64
2023/01/21 09:20:38;;;;;;;80.78;20.50;;;0.60;99.90;;;;;;5103099;28;20097;-64
2023/01/21 09:23:22;;;;;;;42.22;16.05;;;0.40;99.90;;;;;;5121502;27;20052;-64
2023/01/21 09:25:49;;;;;;;73.13;20.67;;;0.70;99.90;;;;;;5109748;27;20043;-64
2023/01/21 09:28:15;;;;;;;72.72;20.73;;;0.50;99.90;;;;;;5115330;27;20448;-65
2023/01/21 09:30:41;;;;;;;80.30;23.40;;;0.50;99.90;;;;;;5086699;28;20132;-65
2023/01/21 09:33:06;;;;;;;73.22;20.00;;;0.60;99.90;;;;;;5099645;27;20043;-64
2023/01/21 09:35:32;;;;;;;76.72;21.25;;;0.60;99.90;;;;;;5109401;27;20487;-65
2023/01/21 09:37:58;;;;;;;80.88;22.67;;;0.50;99.90;;;;;;5112886;27;20062;-64
2023/01/21 09:40:23;;;;;;;78.68;22.90;;;0.60;99.90;;;;;;5107702;27;20077;-64
2023/01/21 09:42:49;;;;;;;105.30;27.23;;;0.50;99.90;;;;;;5114429;27;20031;-64
2023/01/21 09:45:16;;;;;;;97.13;22.27;;;0.50;99.90;;;;;;5103680;28;20111;-65
2023/01/21 09:47:45;;;;;;;111.82;27.00;;;0.40;99.90;;;;;;5110721;27;20051;-64
2023/01/21 09:50:20;;;;;;;139.00;23.67;;;0.40;99.90;;;;;;5117857;27;20031;-64
2023/01/21 09:53:07;;;;;;;488.05;34.35;;;0.40;99.90;;;;;;5113909;27;20039;-64
2023/01/21 09:55:48;;;;;;;501.92;35.28;;;0.30;99.90;;;;;;5093820;27;20110;-65
2023/01/21 09:58:27;;;;;;;488.90;30.75;;;0.40;99.90;;;;;;5099857;27;20042;-65
2023/01/21 10:00:59;;;;;;;549.50;36.42;;;0.30;99.90;;;;;;5106749;27;20035;-65
2023/01/21 10:04:02;;;;;;;617.67;41.80;;;0.30;99.90;;;;;;5114534;27;20092;-65
2023/01/21 10:06:50;;;;;;;506.65;34.10;;;0.40;99.90;;;;;;5113153;27;20039;-65
2023/01/21 10:09:32;;;;;;;441.42;31.52;;;0.30;99.90;;;;;;5113943;27;20092;-65
2023/01/21 10:12:10;;;;;;;404.98;29.20;;;0.30;99.90;;;;;;5114249;27;20053;-65
2023/01/21 10:14:44;;;;;;;621.67;38.55;;;0.30;99.90;;;;;;5119705;27;20397;-64
2023/01/21 10:17:32;;;;;;;490.58;30.73;;;0.40;99.90;;;;;;5109788;27;20624;-64
2023/01/21 10:20:15;;;;;;;562.20;34.22;;;0.40;99.90;;;;;;5101195;28;20457;-65
2023/01/21 10:22:48;;;;;;;580.67;34.55;;;0.20;99.90;;;;;;5093566;27;21435;-64
2023/01/21 10:25:16;;;;;;;450.15;30.13;;;0.20;99.90;;;;;;5115234;27;20067;-65
2023/01/21 10:27:44;;;;;;;465.83;31.60;;;0.20;99.90;;;;;;5110075;27;20039;-65
2023/01/21 10:30:25;;;;;;;622.50;35.22;;;0.30;99.90;;;;;;5081449;27;20047;-65
2023/01/21 10:32:53;;;;;;;578.10;36.92;;;0.20;99.90;;;;;;5112060;27;20058;-65
2023/01/21 10:35:46;;;;;;;718.03;42.47;;;0.20;99.90;;;;;;5119106;27;20054;-65
2023/01/21 10:38:24;;;;;;;472.02;33.20;;;0.10;99.90;;;;;;5105249;27;20497;-65
2023/01/21 10:41:25;;;;;;;350.52;28.48;;;0.30;99.90;;;;;;5108592;27;20050;-65
2023/01/21 10:44:00;;;;;;;531.40;34.33;;;0.30;99.90;;;;;;5103821;27;20511;-65
2023/01/21 10:46:41;;;;;;;528.08;33.92;;;0.30;99.90;;;;;;5107888;27;20055;-65
2023/01/21 10:49:25;;;;;;;225.85;19.50;;;0.50;99.90;;;;;;5118688;27;20378;-65
2023/01/21 10:52:06;;;;;;;456.92;30.33;;;0.40;99.90;;;;;;5111251;27;20051;-64
2023/01/21 10:54:44;;;;;;;421.42;28.58;;;0.60;99.90;;;;;;5093293;27;20045;-65
2023/01/21 10:57:25;;;;;;;383.58;27.95;;;0.50;99.90;;;;;;5118338;27;20515;-64
2023/01/21 10:59:51;;;;;;;360.80;27.27;;;0.30;99.90;;;;;;5099962;28;20075;-64
2023/01/21 11:02:31;;;;;;;315.10;26.15;;;0.50;99.90;;;;;;5093198;28;20048;-64
2023/01/21 11:05:02;;;;;;;438.10;31.77;;;0.40;99.90;;;;;;5093084;28;20036;-64
2023/01/21 11:07:34;;;;;;;340.30;26.93;;;0.50;99.90;;;;;;5109510;27;20513;-64
2023/01/21 11:10:01;;;;;;;329.58;26.45;;;0.40;99.90;;;;;;5097369;28;20300;-64
2023/01/21 11:12:29;;;;;;;60.20;11.13;;;0.60;99.90;;;;;;5113313;27;20054;-65
2023/01/21 11:14:57;;;;;;;221.25;21.77;;;0.50;99.90;;;;;;5115528;27;20096;-65
2023/01/21 11:17:35;;;;;;;312.05;27.65;;;0.40;99.90;;;;;;5099794;27;20054;-65
2023/01/21 11:20:06;;;;;;;318.95;27.95;;;0.40;99.90;;;;;;5104666;27;20500;-65
2023/01/21 11:22:32;;;;;;;186.20;21.73;;;0.60;99.90;;;;;;5108093;27;20039;-65
2023/01/21 11:24:58;;;;;;;306.88;26.20;;;0.60;99.90;;;;;;5110151;27;20096;-64
2023/01/21 11:27:27;;;;;;;129.95;16.38;;;0.50;99.90;;;;;;5110493;27;20641;-65
2023/01/21 11:29:52;;;;;;;157.45;19.85;;;0.70;99.90;;;;;;5106701;27;20046;-65
2023/01/21 11:32:27;;;;;;;204.43;21.23;;;0.50;99.90;;;;;;5110886;27;20474;-64
2023/01/21 11:35:19;;;;;;;293.20;23.02;;;0.50;99.90;;;;;;5112188;27;20042;-65
2023/01/21 11:37:45;;;;;;;277.90;21.75;;;0.60;99.90;;;;;;5094909;27;20429;-65
2023/01/21 11:40:21;;;;;;;254.13;20.48;;;0.60;99.90;;;;;;5099714;28;20027;-65
2023/01/21 11:42:48;;;;;;;395.25;25.67;;;0.60;99.90;;;;;;5101911;27;20070;-64
2023/01/21 11:45:37;;;;;;;314.35;20.80;;;0.40;99.90;;;;;;5108217;27;20081;-65
2023/01/21 11:48:23;;;;;;;341.52;25.30;;;0.50;99.90;;;;;;5113668;27;20039;-65
2023/01/21 11:50:48;;;;;;;355.00;25.10;;;0.30;99.90;;;;;;5110015;27;20047;-64
2023/01/21 11:53:18;;;;;;;405.17;27.95;;;0.50;99.90;;;;;;5111712;28;20051;-65
2023/01/21 11:55:47;;;;;;;405.25;28.30;;;0.40;99.90;;;;;;5107043;28;20043;-65
2023/01/21 11:58:30;;;;;;;391.08;27.67;;;0.50;99.90;;;;;;5110458;28;20425;-64
2023/01/21 12:00:58;;;;;;;291.45;26.00;;;0.40;99.90;;;;;;5110011;28;20050;-65
2023/01/21 12:03:31;;;;;;;257.67;24.63;;;0.50;99.90;;;;;;5111143;28;20043;-64
2023/01/21 12:05:58;;;;;;;71.90;22.98;;;0.70;99.90;;;;;;5114819;28;20039;-65
2023/01/21 12:08:30;;;;;;;91.28;22.52;;;0.60;99.90;;;;;;5108953;28;20044;-65
2023/01/21 12:11:00;;;;;;;105.28;23.73;;;0.80;99.90;;;;;;5108141;28;20467;-65
2023/01/21 12:13:45;;;;;;;129.60;23.20;;;0.70;99.90;;;;;;5104988;28;20039;-65
2023/01/21 12:16:22;;;;;;;71.18;23.48;;;0.90;99.90;;;;;;5122418;27;20043;-65
2023/01/21 12:18:53;;;;;;;85.80;21.13;;;0.90;99.90;;;;;;5105285;27;20039;-65
2023/01/21 12:21:43;;;;;;;212.00;26.60;;;1.00;99.90;;;;;;5109111;28;20043;-65
2023/01/21 12:24:35;;;;;;;137.35;23.10;;;1.00;99.90;;;;;;5108824;27;20051;-65
2023/01/21 12:27:04;;;;;;;66.63;22.20;;;1.20;99.90;;;;;;5113248;28;20401;-65
2023/01/21 12:29:36;;;;;;;143.60;23.67;;;1.20;99.90;;;;;;5108255;28;20043;-65
2023/01/21 12:32:27;;;;;;;72.40;21.15;;;1.30;99.90;;;;;;5101992;27;20035;-65
2023/01/21 12:34:56;;;;;;;67.57;23.23;;;1.30;99.90;;;;;;5083999;27;20051;-65
2023/01/21 12:37:41;;;;;;;59.05;20.05;;;1.30;99.90;;;;;;5116838;27;20035;-66
2023/01/21 12:40:25;;;;;;;62.03;21.60;;;1.40;99.90;;;;;;5107351;27;20389;-65
2023/01/21 12:42:57;;;;;;;58.45;21.67;;;1.30;99.90;;;;;;5106281;27;20491;-65
2023/01/21 12:45:29;;;;;;;62.35;21.50;;;1.50;99.90;;;;;;5106743;27;20047;-66
2023/01/21 12:48:13;;;;;;;66.95;22.10;;;1.50;99.90;;;;;;5092493;27;20404;-66
2023/01/21 12:50:45;;;;;;;57.28;21.90;;;1.50;99.90;;;;;;5122343;27;20050;-66